createdAt,value
2023-03-27T00:00:20.545Z,66.49
2023-03-27T00:02:51.646Z,66.84
2023-03-27T00:05:22.569Z,66.72
2023-03-27T00:07:55.572Z,65.85
2023-03-27T00:10:26.690Z,66.57
2023-03-27T00:12:57.066Z,65.99
2023-03-27T00:15:27.373Z,65.49
2023-03-27T00:17:58.711Z,65.86
2023-03-27T00:20:30.048Z,66.53
2023-03-27T00:23:00.780Z,66.04
2023-03-27T00:25:31.698Z,65.48
2023-03-27T00:28:02.667Z,65.58
2023-03-27T00:30:33.625Z,65.87
2023-03-27T00:33:04.743Z,65.91
2023-03-27T00:35:35.095Z,65.43
2023-03-27T00:38:05.440Z,66.08
2023-03-27T00:40:35.771Z,65.80
2023-03-27T00:43:21.498Z,66.28
2023-03-27T00:45:55.770Z,66.33
2023-03-27T00:48:27.108Z,66.25
2023-03-27T00:50:58.348Z,65.97
2023-03-27T00:53:31.044Z,66.05
2023-03-27T00:56:03.885Z,65.84
2023-03-27T00:58:38.515Z,65.95
2023-03-27T01:01:11.810Z,65.91
2023-03-27T01:03:45.325Z,65.39
2023-03-27T01:06:17.518Z,66.17
2023-03-27T01:08:48.607Z,65.82
2023-03-27T01:11:29.563Z,66.45
2023-03-27T01:14:11.941Z,66.93
2023-03-27T01:16:50.296Z,67.21
2023-03-27T01:19:51.916Z,67.64
2023-03-27T01:22:52.585Z,68.15
2023-03-27T01:25:45.718Z,68.58
2023-03-27T01:28:28.957Z,68.59
2023-03-27T01:31:05.109Z,68.66
2023-03-27T01:34:25.423Z,68.83
2023-03-27T01:37:15.131Z,69.18
2023-03-27T01:39:54.777Z,69.53
2023-03-27T01:42:32.605Z,69.50
2023-03-27T01:45:07.398Z,69.38
2023-03-27T01:47:47.477Z,69.94
2023-03-27T01:50:24.622Z,69.93
2023-03-27T01:52:58.156Z,70.47
2023-03-27T01:55:32.328Z,70.28
2023-03-27T01:58:13.842Z,70.27
2023-03-27T02:00:53.251Z,70.36
2023-03-27T02:03:28.584Z,70.77
2023-03-27T02:06:04.269Z,70.83
2023-03-27T02:08:41.212Z,71.13
2023-03-27T02:11:11.711Z,71.15
2023-03-27T02:13:46.375Z,71.24
2023-03-27T02:16:20.530Z,71.44
2023-03-27T02:18:56.669Z,71.60
2023-03-27T02:21:27.878Z,71.47
2023-03-27T02:24:01.933Z,71.76
2023-03-27T02:26:33.446Z,71.49
2023-03-27T02:29:23.873Z,71.49
2023-03-27T02:32:06.521Z,71.81
2023-03-27T02:34:54.206Z,71.92
2023-03-27T02:37:32.180Z,72.17
2023-03-27T02:40:14.917Z,71.94
2023-03-27T02:42:59.591Z,72.21
2023-03-27T02:45:38.346Z,72.64
2023-03-27T02:48:13.180Z,72.42
2023-03-27T02:50:48.051Z,72.38
2023-03-27T02:53:23.704Z,72.63
2023-03-27T02:55:57.659Z,72.64
2023-03-27T02:58:35.225Z,72.71
2023-03-27T03:01:10.630Z,73.02
2023-03-27T03:03:45.500Z,72.65
2023-03-27T03:06:15.978Z,72.74
2023-03-27T03:08:46.748Z,72.87
2023-03-27T03:11:17.390Z,73.13
2023-03-27T03:13:47.688Z,72.80
2023-03-27T03:16:18.047Z,72.91
2023-03-27T03:18:48.352Z,72.76
2023-03-27T03:21:18.684Z,72.89
2023-03-27T03:23:57.541Z,73.04
2023-03-27T03:26:29.959Z,72.63
2023-03-27T03:29:01.722Z,72.26
2023-03-27T03:31:43.264Z,72.43
2023-03-27T03:34:16.503Z,72.01
2023-03-27T03:36:49.538Z,72.19
2023-03-27T03:39:20.433Z,72.39
2023-03-27T03:41:51.204Z,72.41
2023-03-27T03:44:21.570Z,72.46
2023-03-27T03:46:51.936Z,72.36
2023-03-27T03:49:22.298Z,72.60
2023-03-27T03:52:03.586Z,72.62
2023-03-27T03:54:38.484Z,72.55
2023-03-27T03:57:09.196Z,72.56
2023-03-27T03:59:39.763Z,72.50
2023-03-27T04:02:12.176Z,72.65
2023-03-27T04:04:43.777Z,72.76
2023-03-27T04:07:17.771Z,72.80
2023-03-27T04:09:48.124Z,72.92
2023-03-27T04:12:19.216Z,72.83
2023-03-27T04:14:49.879Z,72.59
2023-03-27T04:17:20.634Z,72.70
2023-03-27T04:19:50.961Z,72.67
2023-03-27T04:22:22.724Z,72.84
2023-03-27T04:24:53.635Z,73.11
2023-03-27T04:27:24.106Z,73.34
2023-03-27T04:29:54.367Z,73.42
2023-03-27T04:32:26.379Z,73.86
2023-03-27T04:34:56.699Z,74.21
2023-03-27T04:37:27.827Z,74.34
2023-03-27T04:39:58.567Z,74.35
2023-03-27T04:42:28.862Z,74.47
2023-03-27T04:44:59.209Z,74.80
2023-03-27T04:47:29.518Z,75.10
2023-03-27T04:50:00.817Z,74.79
2023-03-27T04:52:33.446Z,75.15
2023-03-27T04:55:04.730Z,75.14
2023-03-27T04:57:35.507Z,75.32
2023-03-27T05:00:15.943Z,75.32
2023-03-27T05:02:46.763Z,75.54
2023-03-27T05:05:18.381Z,75.91
2023-03-27T05:07:49.891Z,75.97
2023-03-27T05:10:21.814Z,75.85
2023-03-27T05:12:55.210Z,76.29
2023-03-27T05:15:27.776Z,76.36
2023-03-27T05:17:58.117Z,76.56
2023-03-27T05:20:28.930Z,76.67
2023-03-27T05:22:59.512Z,76.66
2023-03-27T05:25:33.163Z,76.88
2023-03-27T05:28:03.771Z,76.82
2023-03-27T05:30:34.453Z,77.28
2023-03-27T05:33:04.822Z,77.19
2023-03-27T05:35:35.180Z,77.71
2023-03-27T05:38:06.528Z,77.70
2023-03-27T05:40:37.739Z,78.04
2023-03-27T05:43:08.658Z,78.28
2023-03-27T05:45:38.952Z,78.52
2023-03-27T05:48:10.618Z,79.10
2023-03-27T05:50:41.610Z,79.68
2023-03-27T05:53:12.359Z,80.11
2023-03-27T05:55:43.173Z,79.86
2023-03-27T05:58:13.778Z,80.24
2023-03-27T06:00:44.688Z,80.02
2023-03-27T06:03:15.831Z,79.72
2023-03-27T06:05:46.489Z,79.57
2023-03-27T06:08:16.955Z,79.16
2023-03-27T06:10:47.636Z,78.77
2023-03-27T06:13:18.418Z,78.84
2023-03-27T06:15:49.519Z,78.69
2023-03-27T06:18:19.896Z,78.60
2023-03-27T06:20:51.909Z,78.84
2023-03-27T06:23:22.585Z,79.22
2023-03-27T06:25:54.276Z,79.77
2023-03-27T06:28:25.330Z,80.03
2023-03-27T06:30:57.572Z,80.38
2023-03-27T06:33:29.635Z,80.16
2023-03-27T06:36:01.185Z,80.70
2023-03-27T06:38:32.976Z,80.68
2023-03-27T06:41:04.461Z,80.86
2023-03-27T06:43:34.747Z,80.99
2023-03-27T06:46:06.901Z,80.85
2023-03-27T06:48:37.752Z,80.88
2023-03-27T06:51:08.547Z,80.56
2023-03-27T06:53:38.829Z,80.32
2023-03-27T06:56:10.488Z,80.28
2023-03-27T06:58:41.048Z,80.09
2023-03-27T07:01:11.447Z,79.89
2023-03-27T07:03:42.128Z,80.01
2023-03-27T07:06:12.578Z,79.77
2023-03-27T07:08:42.938Z,79.69
2023-03-27T07:11:13.931Z,79.62
2023-03-27T07:13:44.462Z,79.39
2023-03-27T07:16:14.822Z,79.24
2023-03-27T07:18:46.016Z,79.59
2023-03-27T07:21:16.507Z,79.67
2023-03-27T07:23:46.788Z,79.78
2023-03-27T07:26:17.139Z,79.37
2023-03-27T07:28:47.682Z,79.67
2023-03-27T07:33:52.162Z,77.72
2023-03-27T07:36:23.079Z,78.19
2023-03-27T07:38:53.378Z,77.77
2023-03-27T07:41:24.041Z,77.91
2023-03-27T07:43:54.693Z,76.46
2023-03-27T07:46:25.720Z,75.64
2023-03-27T07:48:56.758Z,75.36
2023-03-27T07:51:27.422Z,75.67
2023-03-27T07:54:01.309Z,75.01
2023-03-27T07:56:33.398Z,75.92
2023-03-27T07:59:04.001Z,75.82
2023-03-27T08:01:34.447Z,75.68
2023-03-27T08:04:05.678Z,75.52
2023-03-27T08:06:36.230Z,76.24
2023-03-27T08:09:07.050Z,76.66
2023-03-27T08:11:38.375Z,76.97
2023-03-27T08:14:09.871Z,77.27
2023-03-27T08:16:40.263Z,76.99
2023-03-27T08:19:12.316Z,76.53
2023-03-27T08:21:43.065Z,75.82
2023-03-27T08:24:13.709Z,75.99
2023-03-27T08:26:45.557Z,76.32
2023-03-27T08:29:16.481Z,76.27
2023-03-27T08:31:47.145Z,76.25
2023-03-27T08:34:18.159Z,75.94
2023-03-27T08:36:48.891Z,75.89
2023-03-27T08:39:22.827Z,75.96
2023-03-27T08:41:56.129Z,74.88
2023-03-27T08:44:29.098Z,75.51
2023-03-27T08:47:04.518Z,75.59
2023-03-27T08:49:41.186Z,73.47
2023-03-27T08:52:15.681Z,73.92
2023-03-27T08:54:49.365Z,73.47
2023-03-27T08:57:22.529Z,72.60
2023-03-27T08:59:56.717Z,73.18
2023-03-27T09:02:38.490Z,72.99
2023-03-27T09:05:17.978Z,72.10
2023-03-27T09:07:57.685Z,71.94
2023-03-27T09:10:36.811Z,70.65
2023-03-27T09:13:15.354Z,70.30
2023-03-27T09:15:52.893Z,70.11
2023-03-27T09:18:28.876Z,71.63
2023-03-27T09:21:04.863Z,71.71
2023-03-27T09:23:42.563Z,68.69
2023-03-27T09:26:16.469Z,69.09
2023-03-27T09:28:51.351Z,69.76
2023-03-27T09:31:27.733Z,69.22
2023-03-27T09:34:02.053Z,68.74
2023-03-27T09:36:32.614Z,68.64
2023-03-27T09:39:07.811Z,68.41
2023-03-27T09:41:43.845Z,68.99
2023-03-27T09:44:17.961Z,66.78
2023-03-27T09:46:52.771Z,67.58
2023-03-27T09:49:23.409Z,66.66
2023-03-27T09:51:55.359Z,65.09
2023-03-27T09:54:28.760Z,65.51
2023-03-27T09:57:05.566Z,66.49
2023-03-27T09:59:38.769Z,66.42
2023-03-27T10:02:22.057Z,65.75
2023-03-27T10:05:04.168Z,64.70
2023-03-27T10:07:34.574Z,62.67
2023-03-27T10:10:11.974Z,63.54
2023-03-27T10:12:43.160Z,63.87
2023-03-27T10:15:31.812Z,66.21
2023-03-27T10:18:06.656Z,76.69
2023-03-27T10:20:37.515Z,80.62
2023-03-27T10:23:24.678Z,83.21
2023-03-27T10:25:59.875Z,85.30
2023-03-27T10:28:35.127Z,87.31
2023-03-27T10:31:08.341Z,88.05
2023-03-27T10:33:41.274Z,87.64
2023-03-27T10:36:13.488Z,87.61
2023-03-27T10:38:45.007Z,87.49
2023-03-27T10:41:28.537Z,87.20
2023-03-27T10:44:00.741Z,87.41
2023-03-27T10:46:32.046Z,86.98
2023-03-27T10:49:12.117Z,87.24
2023-03-27T10:51:50.045Z,87.19
2023-03-27T10:54:34.553Z,87.40
2023-03-27T10:57:11.125Z,87.67
2023-03-27T10:59:46.510Z,87.34
2023-03-27T11:02:21.543Z,86.08
2023-03-27T11:04:56.771Z,85.52
2023-03-27T11:07:33.816Z,84.02
2023-03-27T11:10:13.213Z,83.03
2023-03-27T11:12:49.334Z,81.59
2023-03-27T11:15:24.363Z,79.94
2023-03-27T11:18:00.749Z,80.81
2023-03-27T11:20:37.005Z,79.87
2023-03-27T11:23:13.862Z,77.79
2023-03-27T11:25:48.234Z,77.23
2023-03-27T11:28:26.807Z,77.55
2023-03-27T11:31:12.337Z,79.15
2023-03-27T11:33:48.796Z,82.47
2023-03-27T11:36:35.614Z,84.17
2023-03-27T11:39:15.674Z,86.81
2023-03-27T11:41:52.821Z,87.81
2023-03-27T11:44:24.689Z,88.95
2023-03-27T11:47:19.690Z,89.21
2023-03-27T11:50:07.957Z,90.70
2023-03-27T11:52:47.687Z,92.49
2023-03-27T11:55:32.651Z,93.39
2023-03-27T11:58:19.042Z,94.42
2023-03-27T12:00:56.950Z,94.59
2023-03-27T12:03:56.961Z,94.91
2023-03-27T12:06:35.577Z,95.64
2023-03-27T12:09:35.817Z,96.35
2023-03-27T12:12:28.127Z,97.97
2023-03-27T12:15:09.500Z,97.45
2023-03-27T12:18:01.174Z,97.34
2023-03-27T12:20:52.786Z,97.58
2023-03-27T12:23:41.505Z,96.98
2023-03-27T12:26:33.336Z,96.80
2023-03-27T12:29:23.242Z,96.50
2023-03-27T12:32:07.638Z,96.08
2023-03-27T12:34:59.051Z,95.69
2023-03-27T12:37:34.589Z,94.04
2023-03-27T12:40:27.189Z,93.66
2023-03-27T12:43:07.690Z,92.89
2023-03-27T12:45:47.478Z,92.28
2023-03-27T12:48:22.716Z,91.87
2023-03-27T12:51:01.226Z,89.66
2023-03-27T12:53:55.045Z,87.45
2023-03-27T12:56:32.179Z,86.17
2023-03-27T12:59:15.209Z,85.72
2023-03-27T13:02:10.976Z,85.70
2023-03-27T13:05:00.175Z,86.89
2023-03-27T13:07:39.288Z,87.22
2023-03-27T13:10:34.291Z,87.59
2023-03-27T13:13:32.561Z,88.78
2023-03-27T13:16:20.312Z,90.53
2023-03-27T13:19:07.480Z,91.93
2023-03-27T13:21:47.214Z,93.33
2023-03-27T13:24:32.144Z,94.38
2023-03-27T13:27:21.578Z,94.43
2023-03-27T13:29:53.673Z,95.27
2023-03-27T13:32:37.643Z,95.86
2023-03-27T13:35:33.769Z,96.51
2023-03-27T13:38:04.373Z,97.04
2023-03-27T13:40:38.574Z,97.21
2023-03-27T13:43:17.939Z,97.55
2023-03-27T13:45:52.026Z,97.21
2023-03-27T13:48:42.159Z,97.13
2023-03-27T13:51:29.426Z,97.90
2023-03-27T13:54:30.597Z,98.29
2023-03-27T13:57:15.603Z,99.20
2023-03-27T13:59:59.821Z,99.51
2023-03-27T14:03:01.285Z,99.71
2023-03-27T14:06:01.096Z,99.89
2023-03-27T14:08:42.758Z,100.00
2023-03-27T14:11:46.778Z,100.00
2023-03-27T14:14:37.143Z,100.00
2023-03-27T14:17:33.732Z,100.00
2023-03-27T14:20:22.483Z,100.00
2023-03-27T14:22:57.801Z,100.00
2023-03-27T14:25:34.001Z,100.00
2023-03-27T14:28:08.834Z,98.48
2023-03-27T14:30:47.731Z,92.07
2023-03-27T14:33:20.468Z,88.79
2023-03-27T14:35:56.436Z,90.24
2023-03-27T14:38:30.769Z,91.68
2023-03-27T14:41:02.744Z,93.06
2023-03-27T14:43:33.780Z,93.75
2023-03-27T14:46:07.074Z,94.47
2023-03-27T14:48:39.806Z,95.27
2023-03-27T14:51:15.096Z,95.86
2023-03-27T14:53:49.629Z,96.71
2023-03-27T14:56:27.611Z,97.95
2023-03-27T14:58:58.849Z,98.52
2023-03-27T15:01:31.906Z,98.94
2023-03-27T15:04:03.987Z,99.06
2023-03-27T15:06:36.751Z,99.37
2023-03-27T15:09:14.486Z,99.74
2023-03-27T15:11:50.573Z,99.96
2023-03-27T15:14:27.087Z,99.72
2023-03-27T15:17:01.350Z,99.80
2023-03-27T15:19:38.948Z,100.00
2023-03-27T15:22:16.759Z,99.92
2023-03-27T15:24:53.121Z,98.01
2023-03-27T15:27:28.725Z,96.19
2023-03-27T15:30:03.699Z,94.65
2023-03-27T15:32:42.377Z,94.80
2023-03-27T15:35:17.962Z,96.02
2023-03-27T15:37:49.006Z,97.22
2023-03-27T15:40:36.587Z,98.11
2023-03-27T15:43:20.985Z,98.13
2023-03-27T15:46:12.795Z,98.04
2023-03-27T15:48:45.514Z,97.89
2023-03-27T15:51:30.596Z,98.19
2023-03-27T15:54:21.270Z,97.66
2023-03-27T15:56:52.537Z,97.08
2023-03-27T15:59:52.211Z,97.22
2023-03-27T16:02:26.538Z,96.55
2023-03-27T16:04:58.823Z,96.41
2023-03-27T16:07:34.041Z,96.40
2023-03-27T16:10:07.669Z,96.37
2023-03-27T16:12:52.910Z,96.53
2023-03-27T16:15:36.532Z,95.84
2023-03-27T16:18:21.940Z,95.39
2023-03-27T16:20:52.557Z,95.14
2023-03-27T16:23:22.959Z,95.23
2023-03-27T16:25:53.390Z,94.52
2023-03-27T16:28:29.543Z,94.35
2023-03-27T16:30:59.978Z,94.30
2023-03-27T16:33:30.575Z,93.87
2023-03-27T16:36:01.572Z,94.00
2023-03-27T16:38:34.354Z,93.78
2023-03-27T16:41:05.101Z,93.81
2023-03-27T16:43:35.453Z,93.47
2023-03-27T16:46:06.532Z,93.44
2023-03-27T16:48:36.895Z,93.35
2023-03-27T16:51:08.249Z,93.14
2023-03-27T16:53:38.628Z,93.43
2023-03-27T16:56:10.136Z,93.61
2023-03-27T16:58:41.039Z,93.87
2023-03-27T17:01:12.121Z,93.60
2023-03-27T17:03:42.945Z,93.99
2023-03-27T17:06:15.194Z,93.52
2023-03-27T17:08:46.282Z,93.10
2023-03-27T17:11:17.192Z,92.69
2023-03-27T17:13:48.938Z,92.37
2023-03-27T17:16:19.331Z,92.48
2023-03-27T17:18:49.927Z,92.40
2023-03-27T17:21:20.751Z,91.54
2023-03-27T17:23:52.811Z,91.05
2023-03-27T17:26:28.240Z,90.99
2023-03-27T17:28:59.671Z,90.91
2023-03-27T17:31:30.995Z,90.19
2023-03-27T17:34:01.656Z,89.27
2023-03-27T17:36:42.820Z,88.42
2023-03-27T17:39:16.070Z,86.73
2023-03-27T17:41:46.454Z,86.16
2023-03-27T17:44:17.156Z,86.37
2023-03-27T17:46:47.956Z,86.45
2023-03-27T17:49:18.521Z,87.03
2023-03-27T17:51:49.295Z,86.59
2023-03-27T17:54:20.164Z,86.79
2023-03-27T17:56:51.034Z,86.68
2023-03-27T17:59:21.901Z,86.79
2023-03-27T18:01:53.177Z,86.89
2023-03-27T18:04:24.156Z,86.21
2023-03-27T18:06:55.496Z,86.26
2023-03-27T18:09:27.064Z,86.18
2023-03-27T18:11:57.570Z,86.64
2023-03-27T18:14:28.132Z,86.57
2023-03-27T18:16:59.200Z,86.20
2023-03-27T18:19:29.782Z,86.79
2023-03-27T18:22:00.248Z,87.27
2023-03-27T18:24:31.670Z,87.56
2023-03-27T18:27:02.546Z,87.59
2023-03-27T18:29:33.840Z,87.86
2023-03-27T18:32:05.034Z,88.00
2023-03-27T18:34:35.402Z,88.27
2023-03-27T18:37:05.861Z,88.38
2023-03-27T18:39:37.570Z,88.18
2023-03-27T18:42:08.634Z,87.26
2023-03-27T18:44:41.362Z,87.68
2023-03-27T18:47:12.088Z,87.09
2023-03-27T18:49:44.264Z,87.22
2023-03-27T18:52:14.791Z,87.08
2023-03-27T18:54:45.525Z,87.32
2023-03-27T18:57:19.964Z,87.64
2023-03-27T18:59:51.400Z,87.71
2023-03-27T19:02:22.044Z,88.04
2023-03-27T19:04:53.184Z,88.26
2023-03-27T19:07:23.884Z,88.60
2023-03-27T19:09:54.392Z,88.90
2023-03-27T19:12:25.168Z,89.02
2023-03-27T19:15:00.464Z,89.05
2023-03-27T19:17:34.700Z,89.30
2023-03-27T19:20:05.375Z,89.57
2023-03-27T19:22:35.818Z,89.92
2023-03-27T19:25:06.846Z,90.25
2023-03-27T19:27:38.946Z,90.62
2023-03-27T19:30:13.068Z,90.87
2023-03-27T19:32:43.887Z,91.00
2023-03-27T19:35:14.458Z,91.09
2023-03-27T19:37:44.926Z,91.22
2023-03-27T19:40:16.666Z,91.58
2023-03-27T19:42:48.152Z,91.63
2023-03-27T19:45:19.058Z,91.76
2023-03-27T19:47:49.570Z,91.75
2023-03-27T19:50:20.738Z,91.98
2023-03-27T19:53:01.523Z,92.02
2023-03-27T19:55:39.111Z,91.80
2023-03-27T19:58:09.702Z,92.04
2023-03-27T20:00:40.514Z,92.16
2023-03-27T20:03:12.854Z,92.40
2023-03-27T20:05:47.034Z,92.68
2023-03-27T20:08:17.825Z,92.87
2023-03-27T20:10:48.889Z,92.95
2023-03-27T20:13:20.257Z,93.06
2023-03-27T20:15:52.834Z,93.32
2023-03-27T20:18:23.350Z,93.00
2023-03-27T20:20:55.172Z,93.01
2023-03-27T20:23:32.504Z,92.52
2023-03-27T20:26:03.281Z,92.24
2023-03-27T20:28:33.881Z,91.97
2023-03-27T20:31:07.380Z,91.94
2023-03-27T20:33:40.826Z,91.44
2023-03-27T20:36:11.959Z,91.14
2023-03-27T20:38:42.380Z,91.12
2023-03-27T20:41:15.793Z,90.76
2023-03-27T20:43:47.324Z,90.95
2023-03-27T20:46:18.134Z,90.92
2023-03-27T20:48:54.127Z,90.48
2023-03-27T20:51:25.294Z,90.16
2023-03-27T20:53:57.392Z,90.07
2023-03-27T20:56:27.878Z,89.87
2023-03-27T20:58:58.234Z,89.74
2023-03-27T21:01:29.065Z,89.69
2023-03-27T21:04:02.105Z,89.46
2023-03-27T21:06:32.588Z,89.40
2023-03-27T21:09:04.513Z,89.32
2023-03-27T21:11:35.306Z,89.39
2023-03-27T21:14:06.313Z,89.70
2023-03-27T21:16:37.594Z,89.61
2023-03-27T21:19:08.060Z,89.73
2023-03-27T21:21:39.362Z,89.83
2023-03-27T21:24:09.881Z,89.68
2023-03-27T21:26:41.390Z,89.18
2023-03-27T21:29:12.570Z,89.02
2023-03-27T21:31:43.407Z,89.01
2023-03-27T21:34:13.784Z,88.70
2023-03-27T21:36:44.533Z,88.66
2023-03-27T21:39:14.850Z,88.38
2023-03-27T21:41:45.909Z,88.43
2023-03-27T21:44:16.595Z,88.83
2023-03-27T21:46:47.633Z,89.19
2023-03-27T21:49:17.984Z,89.13
2023-03-27T21:51:49.162Z,89.48
2023-03-27T21:54:19.471Z,89.37
2023-03-27T21:56:50.264Z,89.13
2023-03-27T21:59:20.794Z,88.69
2023-03-27T22:01:52.200Z,88.91
2023-03-27T22:04:23.260Z,89.19
2023-03-27T22:06:53.945Z,88.70
2023-03-27T22:09:24.348Z,88.99
2023-03-27T22:11:56.823Z,88.57
2023-03-27T22:14:27.153Z,88.12
2023-03-27T22:16:57.510Z,88.17
2023-03-27T22:19:28.217Z,88.26
2023-03-27T22:21:58.541Z,88.19
2023-03-27T22:24:28.898Z,87.31
2023-03-27T22:26:59.199Z,87.29
2023-03-27T22:29:29.501Z,87.11
2023-03-27T22:32:00.252Z,87.28
2023-03-27T22:34:30.963Z,87.57
2023-03-27T22:37:02.627Z,88.23
2023-03-27T22:39:33.117Z,88.48
2023-03-27T22:42:04.407Z,88.78
2023-03-27T22:44:35.312Z,89.53
2023-03-27T22:47:05.732Z,90.33
2023-03-27T22:49:36.714Z,91.07
2023-03-27T22:52:07.330Z,91.55
2023-03-27T22:54:38.237Z,92.09
2023-03-27T22:57:08.905Z,92.54
2023-03-27T22:59:39.248Z,92.84
2023-03-27T23:02:09.857Z,93.21
2023-03-27T23:04:40.285Z,93.17
2023-03-27T23:07:10.695Z,93.25
2023-03-27T23:09:41.051Z,93.14
2023-03-27T23:12:11.655Z,93.33
2023-03-27T23:14:42.191Z,93.61
2023-03-27T23:17:12.605Z,93.44
2023-03-27T23:19:43.206Z,93.67
2023-03-27T23:22:13.620Z,94.09
2023-03-27T23:24:43.969Z,94.25
2023-03-27T23:27:14.930Z,94.31
2023-03-27T23:29:48.051Z,94.57
2023-03-27T23:32:18.331Z,94.70
2023-03-27T23:34:48.624Z,94.73
2023-03-27T23:37:18.910Z,95.62
2023-03-27T23:39:49.368Z,95.78
2023-03-27T23:42:19.706Z,95.63
2023-03-27T23:44:50.388Z,95.82
2023-03-27T23:47:20.709Z,96.17
2023-03-27T23:49:51.151Z,96.25
2023-03-27T23:52:21.746Z,96.48
2023-03-27T23:54:52.361Z,96.47
2023-03-27T23:57:22.754Z,96.39
2023-03-27T23:59:53.271Z,96.29
